createdAt,value
2023-03-25T00:03:48.670Z,10.43
2023-03-25T00:08:49.872Z,10.40
2023-03-25T00:13:51.104Z,10.32
2023-03-25T00:18:52.206Z,10.19
2023-03-25T00:23:53.288Z,10.14
2023-03-25T00:28:54.485Z,10.43
2023-03-25T00:33:55.633Z,10.40
2023-03-25T00:38:56.824Z,10.91
2023-03-25T00:43:57.951Z,10.96
2023-03-25T00:48:59.119Z,10.94
2023-03-25T00:54:00.293Z,11.17
2023-03-25T00:59:01.571Z,11.29
2023-03-25T01:04:02.785Z,10.36
2023-03-25T01:09:04.128Z,9.58
2023-03-25T01:14:09.198Z,9.66
2023-03-25T01:19:05.703Z,9.76
2023-03-25T01:24:06.939Z,9.71
2023-03-25T01:29:08.056Z,9.61
2023-03-25T01:34:09.203Z,9.46
2023-03-25T01:39:10.446Z,9.49
2023-03-25T01:44:11.616Z,9.66
2023-03-25T01:49:12.797Z,9.57
2023-03-25T01:54:13.927Z,9.43
2023-03-25T01:59:15.169Z,9.46
2023-03-25T02:04:16.375Z,9.32
2023-03-25T02:09:17.529Z,9.24
2023-03-25T02:14:18.648Z,9.30
2023-03-25T02:19:19.801Z,9.05
2023-03-25T02:24:20.959Z,8.60
2023-03-25T02:29:22.131Z,8.20
2023-03-25T02:34:23.248Z,7.82
2023-03-25T02:39:24.459Z,7.87
2023-03-25T02:44:25.658Z,7.84
2023-03-25T02:49:26.809Z,7.72
2023-03-25T02:54:27.948Z,7.77
2023-03-25T02:59:29.147Z,7.93
2023-03-25T03:04:30.454Z,8.33
2023-03-25T03:09:31.590Z,8.18
2023-03-25T03:14:32.894Z,7.87
2023-03-25T03:19:34.088Z,7.75
2023-03-25T03:24:35.337Z,7.72
2023-03-25T03:29:36.491Z,7.72
2023-03-25T03:34:37.674Z,7.82
2023-03-25T03:39:38.809Z,7.85
2023-03-25T03:44:40.035Z,8.11
2023-03-25T03:49:40.150Z,8.11
2023-03-25T03:54:41.387Z,8.12
2023-03-25T03:59:43.798Z,8.15
2023-03-25T04:04:42.943Z,7.99
2023-03-25T04:09:44.091Z,8.04
2023-03-25T04:14:45.277Z,8.00
2023-03-25T04:19:46.366Z,8.00
2023-03-25T04:24:47.592Z,7.94
2023-03-25T04:29:48.817Z,7.24
2023-03-25T04:34:49.973Z,6.80
2023-03-25T04:39:51.194Z,6.61
2023-03-25T04:44:51.368Z,6.51
2023-03-25T04:49:52.601Z,6.43
2023-03-25T04:54:53.836Z,6.40
2023-03-25T04:59:56.050Z,6.19
2023-03-25T05:04:55.223Z,5.81
2023-03-25T05:09:56.459Z,5.73
2023-03-25T05:14:57.680Z,5.74
2023-03-25T05:19:58.816Z,5.78
2023-03-25T05:25:02.938Z,5.85
2023-03-25T05:30:00.186Z,5.92
2023-03-25T05:35:01.391Z,5.91
2023-03-25T05:40:02.579Z,5.96
2023-03-25T05:45:02.582Z,6.06
2023-03-25T05:50:03.765Z,5.86
2023-03-25T05:55:05.026Z,5.86
2023-03-25T06:00:06.197Z,6.00
2023-03-25T06:05:07.412Z,6.07
2023-03-25T06:10:08.644Z,6.03
2023-03-25T06:15:09.833Z,6.03
2023-03-25T06:20:11.000Z,6.10
2023-03-25T06:25:12.197Z,6.18
2023-03-25T06:30:13.414Z,6.36
2023-03-25T06:35:14.718Z,6.36
2023-03-25T06:40:15.890Z,6.28
2023-03-25T06:45:17.083Z,6.19
2023-03-25T06:50:18.200Z,6.14
2023-03-25T06:55:19.636Z,6.44
2023-03-25T07:00:20.848Z,6.50
2023-03-25T07:05:22.146Z,6.54
2023-03-25T07:10:23.249Z,6.86
2023-03-25T07:15:24.429Z,7.02
2023-03-25T07:20:24.598Z,7.15
2023-03-25T07:25:24.727Z,6.81
2023-03-25T07:30:25.893Z,7.23
2023-03-25T07:35:28.084Z,7.16
2023-03-25T07:40:27.272Z,6.84
2023-03-25T07:45:28.654Z,7.27
2023-03-25T07:50:29.793Z,7.49
2023-03-25T07:55:30.946Z,7.72
2023-03-25T08:00:32.092Z,7.97
2023-03-25T08:05:33.236Z,8.21
2023-03-25T08:10:34.418Z,8.58
2023-03-25T08:15:36.503Z,8.96
2023-03-25T08:20:35.937Z,9.60
2023-03-25T08:25:37.121Z,9.78
2023-03-25T08:30:38.265Z,10.18
2023-03-25T08:35:39.466Z,10.15
2023-03-25T08:40:40.736Z,9.86
2023-03-25T08:45:41.950Z,9.70
2023-03-25T08:50:43.036Z,9.94
2023-03-25T08:55:44.200Z,9.81
2023-03-25T09:00:45.324Z,10.32
2023-03-25T09:05:47.535Z,10.25
2023-03-25T09:10:46.720Z,10.18
2023-03-25T09:15:47.902Z,10.32
2023-03-25T09:20:49.137Z,10.12
2023-03-25T09:25:50.589Z,9.93
2023-03-25T09:30:51.029Z,10.76
2023-03-25T09:35:50.409Z,11.07
2023-03-25T09:40:49.741Z,11.53
2023-03-25T09:45:51.028Z,11.65
2023-03-25T09:50:52.198Z,11.80
2023-03-25T09:55:53.694Z,11.52
2023-03-25T10:00:54.955Z,10.99
2023-03-25T10:05:55.116Z,10.77
2023-03-25T10:10:56.262Z,10.43
2023-03-25T10:15:57.436Z,9.85
2023-03-25T10:20:58.588Z,10.32
2023-03-25T10:25:59.717Z,10.59
2023-03-25T10:31:00.866Z,10.99
2023-03-25T10:36:02.020Z,10.88
2023-03-25T10:41:03.133Z,11.35
2023-03-25T10:46:04.281Z,11.16
2023-03-25T10:51:05.369Z,11.07
2023-03-25T10:56:06.530Z,11.41
2023-03-25T11:01:07.749Z,11.36
2023-03-25T11:06:08.917Z,11.93
2023-03-25T11:11:10.062Z,12.56
2023-03-25T11:16:11.211Z,13.04
2023-03-25T11:21:12.332Z,13.12
2023-03-25T11:26:13.485Z,12.49
2023-03-25T11:31:14.758Z,11.86
2023-03-25T11:36:15.879Z,12.05
2023-03-25T11:41:17.035Z,12.31
2023-03-25T11:46:18.417Z,11.75
2023-03-25T11:51:19.628Z,12.16
2023-03-25T11:56:20.914Z,11.82
2023-03-25T12:01:22.228Z,12.30
2023-03-25T12:06:23.612Z,12.82
2023-03-25T12:11:24.739Z,12.87
2023-03-25T12:16:25.943Z,12.93
2023-03-25T12:21:27.408Z,12.75
2023-03-25T12:26:29.004Z,12.87
2023-03-25T12:31:26.175Z,12.96
2023-03-25T12:36:27.297Z,13.44
2023-03-25T12:41:28.479Z,13.76
2023-03-25T12:46:29.634Z,13.52
2023-03-25T12:51:30.744Z,13.99
2023-03-25T12:56:31.976Z,14.10
2023-03-25T13:01:33.074Z,14.17
2023-03-25T13:06:34.298Z,14.25
2023-03-25T13:11:35.506Z,13.46
2023-03-25T13:16:36.720Z,13.59
2023-03-25T13:21:37.936Z,13.37
2023-03-25T13:26:41.136Z,14.65
2023-03-25T13:31:39.818Z,13.92
2023-03-25T13:36:39.009Z,14.75
2023-03-25T13:41:40.213Z,14.35
2023-03-25T13:46:41.450Z,13.96
2023-03-25T13:51:42.587Z,13.87
2023-03-25T13:56:43.768Z,14.35
2023-03-25T14:01:45.061Z,14.21
2023-03-25T14:06:47.154Z,13.89
2023-03-25T14:11:46.300Z,13.98
2023-03-25T14:16:47.514Z,13.92
2023-03-25T14:21:48.627Z,13.63
2023-03-25T14:26:49.850Z,13.02
2023-03-25T14:31:50.940Z,12.59
2023-03-25T14:36:52.127Z,11.87
2023-03-25T14:41:53.215Z,12.38
2023-03-25T14:46:54.478Z,12.59
2023-03-25T14:51:55.574Z,12.95
2023-03-25T14:56:56.750Z,13.24
2023-03-25T15:01:58.133Z,13.54
2023-03-25T15:06:59.230Z,13.70
2023-03-25T15:12:00.384Z,13.80
2023-03-25T15:17:02.510Z,14.98
2023-03-25T15:22:01.712Z,14.56
2023-03-25T15:27:03.830Z,14.29
2023-03-25T15:32:02.945Z,14.20
2023-03-25T15:37:04.077Z,14.52
2023-03-25T15:42:05.162Z,14.27
2023-03-25T15:47:06.327Z,14.56
2023-03-25T15:52:07.679Z,14.91
2023-03-25T15:57:09.882Z,15.03
2023-03-25T16:02:09.011Z,14.98
2023-03-25T16:07:10.147Z,14.87
2023-03-25T16:12:11.432Z,14.84
2023-03-25T16:17:13.636Z,14.43
2023-03-25T16:22:12.793Z,14.09
2023-03-25T16:27:12.946Z,13.77
2023-03-25T16:32:14.127Z,14.01
2023-03-25T16:37:15.233Z,13.27
2023-03-25T16:42:16.342Z,13.71
2023-03-25T16:47:17.519Z,13.99
2023-03-25T16:52:19.744Z,13.24
2023-03-25T16:57:18.951Z,12.77
2023-03-25T17:02:20.150Z,13.18
2023-03-25T17:07:21.289Z,12.85
2023-03-25T17:12:22.764Z,12.62
2023-03-25T17:17:21.030Z,12.48
2023-03-25T17:22:22.468Z,12.54
2023-03-25T17:27:21.642Z,12.37
2023-03-25T17:32:23.502Z,12.19
2023-03-25T17:37:22.735Z,12.04
2023-03-25T17:42:26.904Z,11.82
2023-03-25T17:47:24.319Z,11.38
2023-03-25T17:52:25.613Z,11.39
2023-03-25T17:57:26.763Z,11.29
2023-03-25T18:02:29.029Z,11.11
2023-03-25T18:07:28.214Z,11.03
2023-03-25T18:12:30.335Z,10.95
2023-03-25T18:17:29.566Z,10.88
2023-03-25T18:22:32.759Z,10.71
2023-03-25T18:27:42.759Z,10.36
2023-03-25T18:32:34.205Z,10.28
2023-03-25T18:37:33.751Z,10.46
2023-03-25T18:42:33.030Z,10.62
2023-03-25T18:47:34.470Z,10.62
2023-03-25T18:52:40.033Z,10.70
2023-03-25T18:57:34.305Z,10.63
2023-03-25T19:02:34.034Z,10.47
2023-03-25T19:07:33.620Z,10.32
2023-03-25T19:12:32.947Z,10.06
2023-03-25T19:17:34.373Z,9.97
2023-03-25T19:22:33.835Z,9.83
2023-03-25T19:27:33.310Z,9.82
2023-03-25T19:32:36.815Z,9.76
2023-03-25T19:37:33.507Z,9.66
2023-03-25T19:42:33.881Z,9.52
2023-03-25T19:47:33.803Z,9.39
2023-03-25T19:52:33.787Z,9.35
2023-03-25T19:57:32.954Z,9.45
2023-03-25T20:02:35.317Z,9.45
2023-03-25T20:07:33.671Z,9.31
2023-03-25T20:12:38.841Z,9.58
2023-03-25T20:17:36.417Z,9.78
2023-03-25T20:22:36.042Z,10.03
2023-03-25T20:27:36.497Z,10.09
2023-03-25T20:32:41.154Z,10.28
2023-03-25T20:37:36.005Z,10.36
2023-03-25T20:42:35.454Z,10.44
2023-03-25T20:47:37.056Z,10.63
2023-03-25T20:52:36.440Z,10.51
2023-03-25T20:57:37.852Z,10.22
2023-03-25T21:02:38.114Z,10.30
2023-03-25T21:07:37.756Z,10.36
2023-03-25T21:12:43.700Z,10.36
2023-03-25T21:17:39.224Z,10.25
2023-03-25T21:22:39.719Z,10.19
2023-03-25T21:27:39.370Z,10.18
2023-03-25T21:32:44.439Z,10.14
2023-03-25T21:37:40.248Z,10.21
2023-03-25T21:42:38.707Z,10.51
2023-03-25T21:47:39.894Z,10.39
2023-03-25T21:52:40.000Z,10.43
2023-03-25T21:57:41.196Z,10.21
2023-03-25T22:02:43.261Z,10.04
2023-03-25T22:07:42.333Z,10.07
2023-03-25T22:12:43.497Z,9.79
2023-03-25T22:17:44.733Z,9.48
2023-03-25T22:22:45.949Z,9.23
2023-03-25T22:27:47.196Z,9.12
2023-03-25T22:32:48.398Z,9.02
2023-03-25T22:37:49.588Z,8.90
2023-03-25T22:42:50.667Z,9.04
2023-03-25T22:47:51.905Z,9.20
2023-03-25T22:52:53.048Z,9.09
2023-03-25T22:57:54.259Z,8.94
2023-03-25T23:02:55.533Z,8.75
2023-03-25T23:07:56.735Z,8.75
2023-03-25T23:12:57.940Z,8.90
2023-03-25T23:18:00.033Z,8.76
2023-03-25T23:22:59.119Z,8.73
2023-03-25T23:28:00.310Z,8.78
2023-03-25T23:33:01.533Z,8.86
2023-03-25T23:38:04.841Z,8.75
2023-03-25T23:43:04.066Z,8.68
2023-03-25T23:48:05.385Z,8.54
2023-03-25T23:53:06.554Z,8.44
2023-03-25T23:58:07.741Z,8.29
